Duke Field,(Eglin Af Aux Nr 3) Airport
KEGI : now visible

Airfield :











YOU CAN JOIN US ON...

 
LOGIN :

Register | Disclaimer

   EN    FR    IT 

 









Legend :    VFR   Marginal VFR   IFR   Intensive IFR   Very Intensive IFR
Visi :
Ceiling :
>= 8 km
>= 3000ft
5 to 8 km
1000 to 3000 ft
1500m to 5 km
500 to 1000 ft
800 to 1500m
200 to 500 ft
< 800m
< 200 ft
Symbols :   Thunderstorms  Fog  Heavy snow  Heavy precipitations  Wind > 20 kt






- Airport Elevation : 191 ft


KEGI - Duke Field,(Eglin Af Aux Nr 3)

CURRENT METAR :
  • 290730Z AUTO 00000KT 3/4SM R36/2600V3000FT BR SCT070 10/09 A3003 RMK AO2 SLP169 $

EXPIRED METARs :
  • 290720Z AUTO 00000KT 5/8SM R36/2000V4500FT BR CLR 09/09 A3003 RMK AO2 VIS 5/8V1 3/8 SLP169 $
  • 290655Z AUTO 00000KT 1SM R36/3500V4000FT BR FEW000 10/09 A3002 RMK AO2 SLP166 T00970089 $
  • 290646Z AUTO 00000KT 7/8SM R36/2600V4000FT BR SCT000 10/09 A3003 RMK AO2 SLP169 $
  • 290615Z AUTO 00000KT 1/2SM R36/1800V3000FT FG FEW000 10/09 A3003 RMK AO2 VIS 1/2V1 1/4 SLP169 $
  • 290555Z 00000KT 7/8SM BR SCT000 10/09 A3003 RMK AO2A VIS 3/8V7/8 SLP169 T01010093 10159 20101 402440101 57007 $
  • 290507Z 00000KT 3/8SM FG BKN000 10/09 A3004 RMK AO2A BKN V SCT SLP173 $
  • 290437Z 00000KT 3/4SM BR FEW000 10/10 A3004 RMK AO2A SLP173 $

TAF AMD TAF KEGI
Valid from the 29 at 04:00 until the 30 at 08:00 UTC


290400Z 2904/3008 18009KT 1600 BR SCT003 QNH2999INS
TEMPO 2904/2913 0800 FG BKN002
BECMG 2915/2916 14010G15KT 9999 NSW SCT009 SCT020 BKN040 QNH3005INS
BECMG 2919/2920 15012G18KT 8000 -SHRA OVC025 QNH2999INS
BECMG 3004/3005 18012KT 9000 -SHRA VCTS OVC015CB QNH2997INS TX24/2919Z TN12/2909Z
KZJX FIR / North America



MET'MAP, your aeronautical weather chart ! - Copyright ORBIFLY December 2007 - Disclaimer

ORBIFLY MET'MAP TEAM :

Programming & Development : Alexandra Zaïnal
Original concept : Baudouin d'Aumeries
Technical & hardware support : Manuel Goepfert
Assistance : Marc-Olivier Méhu




SOURCES & CREDITS :

   NOAA       Earth
Advisory